createdAt,value
2023-01-11T00:02:07.616Z,83.13
2023-01-11T00:04:36.737Z,82.35
2023-01-11T00:07:07.545Z,82.91
2023-01-11T00:09:36.551Z,82.34
2023-01-11T00:12:06.181Z,81.53
2023-01-11T00:14:35.274Z,82.49
2023-01-11T00:17:04.694Z,81.82
2023-01-11T00:19:33.899Z,81.37
2023-01-11T00:22:03.260Z,82.18
2023-01-11T00:24:33.933Z,82.74
2023-01-11T00:27:03.348Z,82.27
2023-01-11T00:29:33.083Z,81.60
2023-01-11T00:32:02.434Z,82.76
2023-01-11T00:34:31.732Z,82.64
2023-01-11T00:37:01.189Z,81.62
2023-01-11T00:39:30.505Z,81.35
2023-01-11T00:42:18.809Z,81.76
2023-01-11T00:45:05.723Z,81.87
2023-01-11T00:47:52.566Z,82.67
2023-01-11T00:50:21.654Z,84.07
2023-01-11T00:52:51.200Z,86.60
2023-01-11T00:55:20.337Z,85.30
2023-01-11T00:57:51.172Z,86.94
2023-01-11T01:00:22.600Z,87.84
2023-01-11T01:02:52.425Z,87.67
2023-01-11T01:05:21.660Z,88.05
2023-01-11T01:07:51.309Z,88.72
2023-01-11T01:10:21.815Z,88.76
2023-01-11T01:13:09.893Z,88.33
2023-01-11T01:15:39.075Z,88.41
2023-01-11T01:18:08.546Z,89.69
2023-01-11T01:20:37.863Z,89.22
2023-01-11T01:23:07.263Z,88.46
2023-01-11T01:25:38.715Z,88.19
2023-01-11T01:28:09.529Z,88.00
2023-01-11T01:30:39.942Z,87.18
2023-01-11T01:33:09.341Z,88.00
2023-01-11T01:35:39.771Z,87.49
2023-01-11T01:38:09.198Z,88.33
2023-01-11T01:40:43.771Z,87.64
2023-01-11T01:43:16.225Z,87.26
2023-01-11T01:45:45.570Z,86.63
2023-01-11T01:48:19.677Z,85.93
2023-01-11T01:50:54.288Z,86.51
2023-01-11T01:53:29.330Z,85.28
2023-01-11T01:56:01.751Z,85.09
2023-01-11T01:58:37.896Z,85.90
2023-01-11T02:01:21.955Z,85.70
2023-01-11T02:03:53.067Z,85.19
2023-01-11T02:06:24.174Z,85.83
2023-01-11T02:08:58.013Z,86.67
2023-01-11T02:11:32.100Z,86.84
2023-01-11T02:14:05.481Z,86.07
2023-01-11T02:16:34.861Z,85.10
2023-01-11T02:19:04.940Z,85.26
2023-01-11T02:21:47.505Z,85.48
2023-01-11T02:24:44.278Z,85.34
2023-01-11T02:27:34.864Z,85.31
2023-01-11T02:30:22.627Z,85.26
2023-01-11T02:33:03.827Z,85.36
2023-01-11T02:35:42.675Z,85.62
2023-01-11T02:38:22.438Z,85.64
2023-01-11T02:40:57.472Z,86.02
2023-01-11T02:43:49.502Z,86.45
2023-01-11T02:46:29.437Z,87.02
2023-01-11T02:49:09.911Z,87.14
2023-01-11T02:51:44.504Z,87.78
2023-01-11T02:54:17.348Z,87.50
2023-01-11T02:56:50.096Z,87.84
2023-01-11T02:59:23.371Z,86.66
2023-01-11T03:01:55.983Z,86.49
2023-01-11T03:04:27.572Z,86.77
2023-01-11T03:07:12.291Z,86.71
2023-01-11T03:09:53.458Z,88.39
2023-01-11T03:12:55.170Z,88.16
2023-01-11T03:15:55.631Z,88.48
2023-01-11T03:18:40.317Z,88.33
2023-01-11T03:21:41.693Z,87.85
2023-01-11T03:24:21.635Z,87.54
2023-01-11T03:27:02.096Z,87.48
2023-01-11T03:29:37.360Z,87.42
2023-01-11T03:36:35.407Z,87.79
2023-01-11T03:39:13.746Z,87.44
2023-01-11T03:41:44.868Z,87.59
2023-01-11T03:44:16.402Z,87.51
2023-01-11T03:46:48.312Z,87.20
2023-01-11T03:49:22.278Z,87.42
2023-01-11T03:51:55.333Z,86.82
2023-01-11T03:54:27.732Z,86.55
2023-01-11T03:57:04.641Z,86.73
2023-01-11T03:59:34.675Z,86.75
2023-01-11T04:02:04.753Z,86.35
2023-01-11T04:04:33.849Z,86.18
2023-01-11T04:07:04.668Z,86.57
2023-01-11T04:09:33.892Z,86.17
2023-01-11T04:12:03.410Z,86.97
2023-01-11T04:14:32.524Z,86.18
2023-01-11T04:17:01.901Z,85.90
2023-01-11T04:19:31.240Z,84.84
2023-01-11T04:22:00.705Z,85.63
2023-01-11T04:24:31.254Z,86.92
2023-01-11T04:27:00.599Z,85.36
2023-01-11T04:29:29.832Z,85.29
2023-01-11T04:31:59.204Z,85.04
2023-01-11T04:34:28.406Z,85.68
2023-01-11T04:36:58.092Z,84.34
2023-01-11T04:39:27.251Z,84.30
2023-01-11T04:42:15.628Z,84.40
2023-01-11T04:44:44.842Z,84.33
2023-01-11T04:47:14.203Z,83.41
2023-01-11T04:49:43.307Z,84.72
2023-01-11T04:52:13.846Z,84.13
2023-01-11T04:54:43.207Z,83.37
2023-01-11T04:57:16.211Z,83.45
2023-01-11T04:59:46.824Z,82.56
2023-01-11T05:02:16.509Z,82.65
2023-01-11T05:04:46.164Z,82.17
2023-01-11T05:07:15.639Z,82.21
2023-01-11T05:09:44.860Z,81.63
2023-01-11T05:12:15.719Z,82.41
2023-01-11T05:14:44.831Z,82.54
2023-01-11T05:17:16.113Z,81.93
2023-01-11T05:19:45.396Z,82.48
2023-01-11T05:22:14.887Z,82.35
2023-01-11T05:24:44.020Z,82.89
2023-01-11T05:27:14.837Z,82.46
2023-01-11T05:29:45.403Z,82.19
2023-01-11T05:32:15.185Z,82.33
2023-01-11T05:34:44.233Z,82.42
2023-01-11T05:37:13.627Z,82.32
2023-01-11T05:39:42.733Z,81.89
2023-01-11T05:42:12.100Z,81.15
2023-01-11T05:44:59.936Z,79.95
2023-01-11T05:47:29.402Z,80.84
2023-01-11T05:49:58.535Z,81.67
2023-01-11T05:52:27.943Z,80.98
2023-01-11T05:54:58.557Z,80.58
2023-01-11T05:57:28.034Z,81.42
2023-01-11T05:59:58.511Z,81.01
2023-01-11T06:02:28.061Z,80.59
2023-01-11T06:04:57.271Z,80.61
2023-01-11T06:07:26.725Z,81.27
2023-01-11T06:09:55.765Z,80.94
2023-01-11T06:12:25.240Z,81.13
2023-01-11T06:14:54.327Z,80.72
2023-01-11T06:17:25.139Z,82.04
2023-01-11T06:19:54.215Z,80.41
2023-01-11T06:22:23.831Z,79.32
2023-01-11T06:24:52.950Z,80.60
2023-01-11T06:27:22.396Z,79.75
2023-01-11T06:29:51.438Z,80.31
2023-01-11T06:32:20.893Z,79.76
2023-01-11T06:34:51.497Z,79.82
2023-01-11T06:37:20.880Z,80.14
2023-01-11T06:39:49.993Z,79.34
2023-01-11T06:42:19.376Z,79.25
2023-01-11T06:44:48.576Z,79.09
2023-01-11T06:47:17.989Z,78.82
2023-01-11T06:49:47.059Z,78.50
2023-01-11T06:52:17.880Z,77.99
2023-01-11T06:54:46.970Z,77.40
2023-01-11T06:57:16.372Z,77.80
2023-01-11T06:59:47.963Z,77.17
2023-01-11T07:02:17.529Z,77.23
2023-01-11T07:04:46.660Z,77.08
2023-01-11T07:07:17.511Z,76.80
2023-01-11T07:09:46.585Z,76.69
2023-01-11T07:12:15.932Z,76.73
2023-01-11T07:14:44.985Z,75.67
2023-01-11T07:17:14.419Z,75.43
2023-01-11T07:19:43.542Z,74.34
2023-01-11T07:22:13.075Z,74.93
2023-01-11T07:24:43.597Z,74.77
2023-01-11T07:27:13.108Z,74.84
2023-01-11T07:29:42.303Z,75.26
2023-01-11T07:32:11.795Z,75.50
2023-01-11T07:34:41.012Z,74.94
2023-01-11T07:37:28.166Z,74.51
2023-01-11T07:39:59.804Z,74.29
2023-01-11T07:42:46.693Z,72.88
2023-01-11T07:45:16.449Z,73.88
2023-01-11T07:47:45.996Z,74.00
2023-01-11T07:50:15.231Z,74.35
2023-01-11T07:52:48.975Z,73.67
2023-01-11T07:55:19.447Z,72.90
2023-01-11T07:57:48.925Z,72.75
2023-01-11T08:00:19.206Z,73.17
2023-01-11T08:02:52.734Z,72.77
2023-01-11T08:05:23.183Z,72.75
2023-01-11T08:07:52.769Z,73.23
2023-01-11T08:10:23.439Z,72.09
2023-01-11T08:13:10.452Z,72.37
2023-01-11T08:15:42.477Z,72.99
2023-01-11T08:18:13.257Z,72.92
2023-01-11T08:20:42.591Z,73.14
2023-01-11T08:23:12.480Z,72.68
2023-01-11T08:25:42.882Z,72.75
2023-01-11T08:28:13.185Z,73.22
2023-01-11T08:30:42.720Z,72.94
2023-01-11T08:33:13.418Z,72.25
2023-01-11T08:35:42.665Z,72.72
2023-01-11T08:38:12.442Z,72.58
2023-01-11T08:40:43.081Z,72.04
2023-01-11T08:43:12.400Z,72.39
2023-01-11T08:45:41.625Z,72.19
2023-01-11T08:48:12.207Z,72.11
2023-01-11T08:50:41.497Z,71.91
2023-01-11T08:53:12.223Z,72.16
2023-01-11T08:55:44.660Z,71.32
2023-01-11T08:58:14.015Z,72.35
2023-01-11T09:00:43.174Z,70.77
2023-01-11T09:03:13.392Z,71.18
2023-01-11T09:05:43.347Z,71.18
2023-01-11T09:08:13.215Z,70.78
2023-01-11T09:10:43.684Z,70.82
2023-01-11T09:13:13.196Z,70.79
2023-01-11T09:15:42.601Z,70.61
2023-01-11T09:18:11.950Z,70.51
2023-01-11T09:20:41.101Z,70.38
2023-01-11T09:23:10.574Z,70.11
2023-01-11T09:25:39.736Z,70.14
2023-01-11T09:28:10.533Z,69.80
2023-01-11T09:30:39.634Z,69.42
2023-01-11T09:33:09.104Z,69.57
2023-01-11T09:35:41.899Z,69.75
2023-01-11T09:38:11.301Z,68.20
2023-01-11T09:40:51.249Z,68.60
2023-01-11T09:43:27.364Z,68.09
2023-01-11T09:46:00.644Z,67.33
2023-01-11T09:48:41.060Z,67.48
2023-01-11T09:51:13.330Z,67.44
2023-01-11T09:53:46.492Z,66.60
2023-01-11T09:56:24.561Z,65.64
2023-01-11T09:59:06.602Z,65.54
2023-01-11T10:01:45.694Z,65.32
2023-01-11T10:04:33.739Z,63.70
2023-01-11T10:07:23.650Z,64.23
2023-01-11T10:18:31.014Z,64.22
2023-01-11T10:19:31.519Z,64.69
2023-01-11T10:21:56.452Z,64.36
2023-01-11T10:24:30.149Z,64.42
2023-01-11T10:27:05.894Z,64.69
2023-01-11T10:29:49.958Z,65.19
2023-01-11T10:32:53.144Z,64.39
2023-01-11T10:35:45.866Z,63.89
2023-01-11T10:38:43.714Z,64.03
2023-01-11T10:41:26.503Z,63.77
2023-01-11T10:44:11.826Z,64.20
2023-01-11T10:46:46.229Z,64.65
2023-01-11T10:49:41.202Z,64.57
2023-01-11T10:52:23.731Z,64.56
2023-01-11T10:54:56.091Z,64.65
2023-01-11T10:58:01.460Z,64.84
2023-01-11T11:00:43.196Z,64.26
2023-01-11T11:03:35.880Z,63.80
2023-01-11T11:06:14.529Z,64.14
2023-01-11T11:08:50.826Z,63.60
2023-01-11T11:11:28.411Z,62.54
2023-01-11T11:14:03.731Z,63.61
2023-01-11T11:16:47.836Z,63.90
2023-01-11T11:19:22.207Z,63.25
2023-01-11T11:21:53.906Z,62.71
2023-01-11T11:24:32.433Z,63.02
2023-01-11T11:27:08.849Z,63.31
2023-01-11T11:29:44.643Z,63.12
2023-01-11T11:32:22.271Z,63.25
2023-01-11T11:34:53.112Z,63.01
2023-01-11T11:37:26.966Z,63.47
2023-01-11T11:39:57.915Z,63.36
2023-01-11T11:42:28.078Z,63.54
2023-01-11T11:45:18.215Z,63.47
2023-01-11T11:48:03.662Z,64.24
2023-01-11T11:50:46.035Z,64.49
2023-01-11T11:53:33.755Z,64.16
2023-01-11T11:56:10.061Z,64.31
2023-01-11T11:58:43.826Z,64.33
2023-01-11T12:01:27.453Z,64.80
2023-01-11T12:04:00.521Z,64.41
2023-01-11T12:06:31.257Z,64.34
2023-01-11T12:09:05.266Z,64.94
2023-01-11T12:11:37.064Z,65.47
2023-01-11T12:14:18.211Z,64.82
2023-01-11T12:16:48.297Z,64.74
2023-01-11T12:19:28.992Z,64.82
2023-01-11T12:22:13.125Z,63.91
2023-01-11T12:24:44.190Z,63.50
2023-01-11T12:27:28.688Z,64.32
2023-01-11T12:30:21.394Z,64.62
2023-01-11T12:33:14.256Z,64.45
2023-01-11T12:35:53.002Z,64.44
2023-01-11T12:38:41.184Z,63.47
2023-01-11T12:41:50.315Z,63.37
2023-01-11T12:44:43.809Z,64.11
2023-01-11T12:47:40.886Z,63.62
2023-01-11T12:50:18.501Z,63.89
2023-01-11T12:53:03.720Z,64.07
2023-01-11T12:55:52.043Z,64.30
2023-01-11T12:58:34.141Z,64.01
2023-01-11T13:01:29.167Z,63.99
2023-01-11T13:04:31.005Z,64.28
2023-01-11T13:07:10.354Z,63.84
2023-01-11T13:09:59.440Z,63.92
2023-01-11T13:12:35.035Z,63.39
2023-01-11T13:15:26.089Z,64.05
2023-01-11T13:18:01.533Z,65.29
2023-01-11T13:20:48.773Z,65.88
2023-01-11T13:23:33.145Z,65.10
2023-01-11T13:26:18.287Z,64.78
2023-01-11T13:28:52.115Z,65.39
2023-01-11T13:31:24.252Z,65.37
2023-01-11T13:34:01.545Z,65.10
2023-01-11T13:36:38.786Z,65.27
2023-01-11T13:39:15.399Z,66.04
2023-01-11T13:41:49.518Z,65.63
2023-01-11T13:44:24.929Z,64.40
2023-01-11T13:47:03.769Z,64.23
2023-01-11T13:49:54.006Z,64.15
2023-01-11T13:52:34.238Z,63.81
2023-01-11T13:55:14.352Z,65.27
2023-01-11T13:57:57.113Z,64.38
2023-01-11T14:00:31.960Z,64.79
2023-01-11T14:03:13.834Z,64.55
2023-01-11T14:05:52.482Z,64.84
2023-01-11T14:08:52.911Z,64.82
2023-01-11T14:11:29.221Z,66.04
2023-01-11T14:14:20.616Z,65.70
2023-01-11T14:17:20.150Z,65.48
2023-01-11T14:19:57.183Z,64.95
2023-01-11T14:22:35.954Z,64.58
2023-01-11T14:25:14.874Z,64.73
2023-01-11T14:28:01.424Z,65.38
2023-01-11T14:30:47.017Z,65.72
2023-01-11T14:33:49.056Z,66.04
2023-01-11T14:36:49.450Z,66.28
2023-01-11T14:39:42.107Z,67.26
2023-01-11T14:42:44.506Z,67.18
2023-01-11T14:45:41.940Z,66.80
2023-01-11T14:48:25.241Z,67.00
2023-01-11T14:51:25.941Z,67.40
2023-01-11T14:54:04.561Z,67.02
2023-01-11T14:56:47.594Z,67.34
2023-01-11T14:59:47.150Z,67.51
2023-01-11T15:02:30.836Z,67.66
2023-01-11T15:05:34.856Z,67.54
2023-01-11T15:08:23.494Z,67.87
2023-01-11T15:10:58.806Z,66.73
2023-01-11T15:13:32.459Z,66.99
2023-01-11T15:16:36.344Z,67.54
2023-01-11T15:19:09.065Z,67.44
2023-01-11T15:21:47.618Z,66.78
2023-01-11T15:24:26.227Z,66.65
2023-01-11T15:26:58.439Z,66.53
2023-01-11T15:29:31.101Z,67.07
2023-01-11T15:32:17.783Z,67.23
2023-01-11T15:34:49.239Z,67.63
2023-01-11T15:37:51.450Z,67.47
2023-01-11T15:40:24.050Z,67.34
2023-01-11T15:43:41.435Z,66.92
2023-01-11T15:46:55.918Z,66.50
2023-01-11T15:50:04.413Z,67.71
2023-01-11T15:53:15.705Z,67.74
2023-01-11T15:56:17.417Z,67.68
2023-01-11T15:59:15.206Z,68.00
2023-01-11T16:02:11.732Z,67.65
2023-01-11T16:04:45.914Z,67.49
2023-01-11T16:07:23.654Z,67.85
2023-01-11T16:10:11.890Z,68.42
2023-01-11T16:13:04.398Z,67.71
2023-01-11T16:15:49.408Z,68.55
2023-01-11T16:18:23.426Z,67.74
2023-01-11T16:21:01.636Z,67.91
2023-01-11T16:23:32.751Z,67.99
2023-01-11T16:26:03.108Z,67.96
2023-01-11T16:28:32.574Z,68.38
2023-01-11T16:31:03.830Z,67.50
2023-01-11T16:33:35.999Z,67.28
2023-01-11T16:36:06.730Z,68.20
2023-01-11T16:38:53.456Z,68.13
2023-01-11T16:41:24.222Z,68.37
2023-01-11T16:44:00.462Z,67.87
2023-01-11T16:47:08.385Z,68.65
2023-01-11T16:49:39.912Z,68.58
2023-01-11T16:52:38.975Z,68.37
2023-01-11T16:55:36.622Z,68.45
2023-01-11T16:58:08.542Z,68.60
2023-01-11T17:00:40.000Z,68.56
2023-01-11T17:03:31.232Z,68.93
2023-01-11T17:06:18.619Z,68.98
2023-01-11T17:08:52.182Z,68.59
2023-01-11T17:11:36.510Z,68.87
2023-01-11T17:14:44.111Z,69.26
2023-01-11T17:17:15.023Z,68.37
2023-01-11T17:19:46.969Z,68.37
2023-01-11T17:22:22.441Z,68.40
2023-01-11T17:24:55.921Z,68.29
2023-01-11T17:27:29.200Z,68.42
2023-01-11T17:30:00.169Z,68.79
2023-01-11T17:32:37.466Z,68.40
2023-01-11T17:35:15.126Z,68.22
2023-01-11T17:37:47.462Z,69.01
2023-01-11T17:40:24.759Z,68.87
2023-01-11T17:43:22.111Z,68.23
2023-01-11T17:45:55.136Z,68.50
2023-01-11T17:48:27.012Z,68.53
2023-01-11T17:50:58.300Z,68.90
2023-01-11T17:53:32.300Z,68.98
2023-01-11T17:56:03.523Z,68.51
2023-01-11T17:58:34.384Z,68.77
2023-01-11T18:01:21.506Z,68.19
2023-01-11T18:03:53.531Z,68.73
2023-01-11T18:06:32.475Z,68.91
2023-01-11T18:09:05.230Z,68.20
2023-01-11T18:11:36.993Z,68.46
2023-01-11T18:14:09.376Z,68.14
2023-01-11T18:16:55.713Z,68.44
2023-01-11T18:19:32.445Z,68.29
2023-01-11T18:22:02.196Z,68.42
2023-01-11T18:24:45.251Z,68.87
2023-01-11T18:27:29.544Z,68.26
2023-01-11T18:30:02.832Z,67.88
2023-01-11T18:32:39.112Z,69.09
2023-01-11T18:35:18.940Z,69.10
2023-01-11T18:37:48.889Z,69.12
2023-01-11T18:40:21.520Z,70.56
2023-01-11T18:42:53.444Z,70.35
2023-01-11T18:45:25.124Z,72.29
2023-01-11T18:47:54.419Z,74.61
2023-01-11T18:50:24.494Z,76.00
2023-01-11T18:52:53.732Z,77.58
2023-01-11T18:55:24.454Z,77.79
2023-01-11T18:57:53.515Z,78.44
2023-01-11T19:00:25.448Z,78.26
2023-01-11T19:02:54.779Z,79.89
2023-01-11T19:05:24.508Z,80.44
2023-01-11T19:07:53.956Z,79.17
2023-01-11T19:10:25.666Z,80.68
2023-01-11T19:12:57.390Z,79.50
2023-01-11T19:15:27.096Z,80.07
2023-01-11T19:17:56.339Z,80.58
2023-01-11T19:20:25.726Z,80.25
2023-01-11T19:22:55.066Z,81.43
2023-01-11T19:25:25.787Z,82.09
2023-01-11T19:27:55.139Z,81.15
2023-01-11T19:30:24.557Z,80.79
2023-01-11T19:32:54.056Z,80.43
2023-01-11T19:35:24.796Z,81.14
2023-01-11T19:37:54.146Z,82.67
2023-01-11T19:40:27.318Z,82.32
2023-01-11T19:42:56.618Z,83.59
2023-01-11T19:45:26.038Z,82.48
2023-01-11T19:47:55.169Z,83.14
2023-01-11T19:50:24.854Z,81.46
2023-01-11T19:52:54.193Z,81.78
2023-01-11T19:55:25.291Z,82.49
2023-01-11T19:57:54.581Z,83.48
2023-01-11T20:00:24.393Z,82.82
2023-01-11T20:02:53.731Z,82.72
2023-01-11T20:05:23.412Z,83.27
2023-01-11T20:07:53.970Z,83.22
2023-01-11T20:10:23.437Z,83.05
2023-01-11T20:12:54.006Z,81.73
2023-01-11T20:15:23.516Z,82.59
2023-01-11T20:17:52.644Z,83.30
2023-01-11T20:20:22.090Z,83.29
2023-01-11T20:22:51.330Z,83.72
2023-01-11T20:25:21.048Z,83.16
2023-01-11T20:27:50.285Z,84.35
2023-01-11T20:30:21.467Z,83.92
2023-01-11T20:32:50.566Z,83.20
2023-01-11T20:35:20.036Z,83.00
2023-01-11T20:37:49.212Z,84.57
2023-01-11T20:40:19.109Z,83.70
2023-01-11T20:42:48.341Z,83.50
2023-01-11T20:45:18.232Z,83.18
2023-01-11T20:47:48.737Z,83.17
2023-01-11T20:50:18.288Z,84.01
2023-01-11T20:52:49.426Z,83.71
2023-01-11T20:55:18.809Z,82.98
2023-01-11T20:57:48.477Z,82.97
2023-01-11T21:00:19.015Z,85.06
2023-01-11T21:02:52.010Z,82.88
2023-01-11T21:05:21.583Z,83.04
2023-01-11T21:07:53.522Z,83.38
2023-01-11T21:10:22.997Z,82.35
2023-01-11T21:12:54.284Z,82.53
2023-01-11T21:15:23.932Z,84.04
2023-01-11T21:17:54.573Z,85.13
2023-01-11T21:20:24.283Z,84.59
2023-01-11T21:22:53.554Z,84.63
2023-01-11T21:25:22.959Z,84.69
2023-01-11T21:27:52.107Z,84.64
2023-01-11T21:30:21.780Z,84.70
2023-01-11T21:32:51.149Z,84.23
2023-01-11T21:35:22.091Z,84.68
2023-01-11T21:37:51.380Z,84.95
2023-01-11T21:40:20.986Z,85.03
2023-01-11T21:42:50.116Z,84.66
2023-01-11T21:45:19.523Z,85.09
2023-01-11T21:47:48.681Z,84.69
2023-01-11T21:50:18.578Z,85.40
2023-01-11T21:52:49.210Z,84.04
2023-01-11T21:55:18.625Z,84.25
2023-01-11T21:57:47.739Z,85.00
2023-01-11T22:00:18.048Z,84.45
2023-01-11T22:02:50.506Z,83.74
2023-01-11T22:05:19.911Z,84.43
2023-01-11T22:07:50.434Z,84.58
2023-01-11T22:10:20.250Z,84.09
2023-01-11T22:12:49.428Z,83.89
2023-01-11T22:15:19.422Z,83.96
2023-01-11T22:17:48.540Z,84.59
2023-01-11T22:20:18.398Z,83.95
2023-01-11T22:22:47.531Z,84.11
2023-01-11T22:25:18.427Z,84.22
2023-01-11T22:27:47.601Z,84.73
2023-01-11T22:30:17.724Z,84.13
2023-01-11T22:32:47.986Z,85.13
2023-01-11T22:35:17.533Z,85.26
2023-01-11T22:37:46.557Z,85.75
2023-01-11T22:40:18.071Z,85.03
2023-01-11T22:42:47.446Z,85.12
2023-01-11T22:45:17.093Z,85.04
2023-01-11T22:47:47.439Z,83.91
2023-01-11T22:50:17.492Z,84.13
2023-01-11T22:52:46.546Z,83.55
2023-01-11T22:55:17.611Z,84.75
2023-01-11T22:57:46.744Z,85.21
2023-01-11T23:00:16.513Z,85.40
2023-01-11T23:02:45.644Z,85.67
2023-01-11T23:05:15.317Z,85.26
2023-01-11T23:07:45.507Z,85.52
2023-01-11T23:10:15.098Z,84.72
2023-01-11T23:13:02.851Z,84.28
2023-01-11T23:15:32.257Z,84.72
2023-01-11T23:18:01.350Z,84.97
2023-01-11T23:20:30.795Z,84.86
2023-01-11T23:22:59.871Z,84.90
2023-01-11T23:25:29.342Z,84.22
2023-01-11T23:27:59.968Z,84.59
2023-01-11T23:30:29.416Z,83.73
2023-01-11T23:32:58.581Z,84.78
2023-01-11T23:35:28.082Z,84.02
2023-01-11T23:37:57.343Z,83.81
2023-01-11T23:40:26.983Z,83.82
2023-01-11T23:42:55.080Z,84.00
2023-01-11T23:45:26.055Z,83.45
2023-01-11T23:47:54.229Z,83.42
2023-01-11T23:50:23.869Z,84.63
2023-01-11T23:52:53.101Z,83.54
2023-01-11T23:55:22.659Z,82.83
2023-01-11T23:58:05.630Z,82.59
